sensor_id;sensor_type;location;lat;lon;timestamp;P1;durP1;ratioP1;P2;durP2;ratioP2
21554;SDS011;10938;44.794;-0.676;2022-10-22T00:00:12;5.53;;;2.00;;
21554;SDS011;10938;44.794;-0.676;2022-10-22T00:02:40;3.67;;;2.10;;
21554;SDS011;10938;44.794;-0.676;2022-10-22T00:05:07;3.80;;;2.08;;
21554;SDS011;10938;44.794;-0.676;2022-10-22T00:07:41;6.43;;;2.25;;
21554;SDS011;10938;44.794;-0.676;2022-10-22T00:10:07;6.22;;;2.47;;
21554;SDS011;10938;44.794;-0.676;2022-10-22T00:12:33;3.45;;;2.10;;
21554;SDS011;10938;44.794;-0.676;2022-10-22T00:14:58;3.40;;;2.03;;
21554;SDS011;10938;44.794;-0.676;2022-10-22T00:17:24;6.70;;;2.25;;
21554;SDS011;10938;44.794;-0.676;2022-10-22T00:19:49;5.38;;;2.00;;
21554;SDS011;10938;44.794;-0.676;2022-10-22T00:22:15;2.25;;;1.70;;
21554;SDS011;10938;44.794;-0.676;2022-10-22T00:24:41;4.22;;;1.90;;
21554;SDS011;10938;44.794;-0.676;2022-10-22T00:27:07;4.55;;;1.90;;
21554;SDS011;10938;44.794;-0.676;2022-10-22T00:29:34;5.70;;;2.10;;
21554;SDS011;10938;44.794;-0.676;2022-10-22T00:32:00;4.40;;;1.83;;
21554;SDS011;10938;44.794;-0.676;2022-10-22T00:34:26;4.38;;;2.00;;
21554;SDS011;10938;44.794;-0.676;2022-10-22T00:36:52;4.15;;;2.17;;
21554;SDS011;10938;44.794;-0.676;2022-10-22T00:39:18;3.50;;;1.92;;
21554;SDS011;10938;44.794;-0.676;2022-10-22T00:41:48;5.32;;;2.58;;
21554;SDS011;10938;44.794;-0.676;2022-10-22T00:47:17;3.17;;;2.10;;
21554;SDS011;10938;44.794;-0.676;2022-10-22T00:49:44;4.22;;;2.13;;
21554;SDS011;10938;44.794;-0.676;2022-10-22T00:52:10;6.32;;;2.15;;
21554;SDS011;10938;44.794;-0.676;2022-10-22T00:54:37;4.22;;;2.03;;
21554;SDS011;10938;44.794;-0.676;2022-10-22T00:57:03;4.28;;;2.15;;
21554;SDS011;10938;44.794;-0.676;2022-10-22T00:59:29;6.35;;;2.17;;
21554;SDS011;10938;44.794;-0.676;2022-10-22T01:01:55;5.15;;;2.15;;
21554;SDS011;10938;44.794;-0.676;2022-10-22T01:04:20;4.78;;;2.28;;
21554;SDS011;10938;44.794;-0.676;2022-10-22T01:06:46;3.28;;;2.00;;
21554;SDS011;10938;44.794;-0.676;2022-10-22T01:25:57;6.72;;;2.05;;
21554;SDS011;10938;44.794;-0.676;2022-10-22T01:31:12;3.05;;;1.83;;
21554;SDS011;10938;44.794;-0.676;2022-10-22T01:33:41;3.72;;;2.00;;
21554;SDS011;10938;44.794;-0.676;2022-10-22T01:36:10;3.22;;;1.83;;
21554;SDS011;10938;44.794;-0.676;2022-10-22T01:38:41;3.67;;;1.95;;
21554;SDS011;10938;44.794;-0.676;2022-10-22T01:41:11;3.50;;;1.80;;
21554;SDS011;10938;44.794;-0.676;2022-10-22T01:43:36;2.72;;;1.83;;
21554;SDS011;10938;44.794;-0.676;2022-10-22T01:46:02;3.08;;;1.60;;
21554;SDS011;10938;44.794;-0.676;2022-10-22T01:53:53;4.30;;;1.90;;
21554;SDS011;10938;44.794;-0.676;2022-10-22T02:04:44;2.33;;;1.30;;
21554;SDS011;10938;44.794;-0.676;2022-10-22T02:07:16;4.38;;;1.55;;
21554;SDS011;10938;44.794;-0.676;2022-10-22T02:09:44;2.33;;;1.50;;
21554;SDS011;10938;44.794;-0.676;2022-10-22T02:12:10;4.45;;;1.70;;
21554;SDS011;10938;44.794;-0.676;2022-10-22T02:14:38;4.22;;;1.65;;
21554;SDS011;10938;44.794;-0.676;2022-10-22T02:17:07;2.20;;;1.60;;
21554;SDS011;10938;44.794;-0.676;2022-10-22T02:19:47;2.38;;;1.42;;
21554;SDS011;10938;44.794;-0.676;2022-10-22T02:22:14;2.05;;;1.50;;
21554;SDS011;10938;44.794;-0.676;2022-10-22T02:24:40;2.65;;;1.77;;
21554;SDS011;10938;44.794;-0.676;2022-10-22T02:30:10;3.50;;;1.70;;
21554;SDS011;10938;44.794;-0.676;2022-10-22T02:32:50;2.67;;;1.40;;
21554;SDS011;10938;44.794;-0.676;2022-10-22T02:35:44;3.45;;;1.90;;
21554;SDS011;10938;44.794;-0.676;2022-10-22T02:38:11;3.20;;;1.73;;
21554;SDS011;10938;44.794;-0.676;2022-10-22T02:40:38;2.20;;;1.50;;
21554;SDS011;10938;44.794;-0.676;2022-10-22T02:43:04;4.22;;;1.65;;
21554;SDS011;10938;44.794;-0.676;2022-10-22T02:45:30;1.92;;;1.58;;
21554;SDS011;10938;44.794;-0.676;2022-10-22T02:47:56;5.05;;;1.95;;
21554;SDS011;10938;44.794;-0.676;2022-10-22T02:50:22;2.40;;;1.42;;
21554;SDS011;10938;44.794;-0.676;2022-10-22T02:52:48;3.17;;;1.55;;
21554;SDS011;10938;44.794;-0.676;2022-10-22T02:55:13;3.03;;;1.40;;
21554;SDS011;10938;44.794;-0.676;2022-10-22T02:57:38;2.17;;;1.25;;
21554;SDS011;10938;44.794;-0.676;2022-10-22T03:00:04;2.90;;;1.40;;
21554;SDS011;10938;44.794;-0.676;2022-10-22T03:02:32;1.63;;;1.13;;
21554;SDS011;10938;44.794;-0.676;2022-10-22T03:04:58;3.03;;;1.25;;
21554;SDS011;10938;44.794;-0.676;2022-10-22T03:07:26;2.40;;;1.20;;
21554;SDS011;10938;44.794;-0.676;2022-10-22T03:10:02;5.80;;;1.40;;
21554;SDS011;10938;44.794;-0.676;2022-10-22T03:12:28;1.88;;;1.35;;
21554;SDS011;10938;44.794;-0.676;2022-10-22T03:14:53;1.23;;;1.13;;
21554;SDS011;10938;44.794;-0.676;2022-10-22T03:17:19;4.57;;;1.58;;
21554;SDS011;10938;44.794;-0.676;2022-10-22T03:19:44;2.83;;;1.17;;
21554;SDS011;10938;44.794;-0.676;2022-10-22T03:22:14;1.63;;;1.23;;
21554;SDS011;10938;44.794;-0.676;2022-10-22T03:24:45;3.08;;;1.40;;
21554;SDS011;10938;44.794;-0.676;2022-10-22T03:27:14;1.23;;;1.10;;
21554;SDS011;10938;44.794;-0.676;2022-10-22T03:29:42;2.75;;;1.40;;
21554;SDS011;10938;44.794;-0.676;2022-10-22T03:32:08;4.22;;;1.10;;
21554;SDS011;10938;44.794;-0.676;2022-10-22T03:34:34;2.35;;;1.42;;
21554;SDS011;10938;44.794;-0.676;2022-10-22T03:36:59;2.65;;;1.20;;
21554;SDS011;10938;44.794;-0.676;2022-10-22T03:39:26;2.40;;;1.27;;
21554;SDS011;10938;44.794;-0.676;2022-10-22T03:41:56;3.00;;;1.10;;
21554;SDS011;10938;44.794;-0.676;2022-10-22T03:44:21;3.97;;;1.63;;
21554;SDS011;10938;44.794;-0.676;2022-10-22T03:46:48;5.15;;;1.20;;
21554;SDS011;10938;44.794;-0.676;2022-10-22T03:49:14;3.78;;;1.50;;
21554;SDS011;10938;44.794;-0.676;2022-10-22T03:51:39;3.15;;;1.20;;
21554;SDS011;10938;44.794;-0.676;2022-10-22T03:54:05;1.55;;;1.25;;
21554;SDS011;10938;44.794;-0.676;2022-10-22T03:56:30;2.05;;;1.23;;
21554;SDS011;10938;44.794;-0.676;2022-10-22T03:58:57;1.77;;;1.25;;
21554;SDS011;10938;44.794;-0.676;2022-10-22T04:01:27;1.30;;;1.20;;
21554;SDS011;10938;44.794;-0.676;2022-10-22T04:03:57;1.73;;;1.23;;
21554;SDS011;10938;44.794;-0.676;2022-10-22T04:06:23;2.90;;;1.33;;
21554;SDS011;10938;44.794;-0.676;2022-10-22T04:08:52;2.63;;;1.17;;
21554;SDS011;10938;44.794;-0.676;2022-10-22T04:11:18;2.90;;;1.10;;
21554;SDS011;10938;44.794;-0.676;2022-10-22T04:13:44;4.53;;;1.40;;
21554;SDS011;10938;44.794;-0.676;2022-10-22T04:16:10;1.17;;;1.08;;
21554;SDS011;10938;44.794;-0.676;2022-10-22T04:18:36;3.95;;;1.40;;
21554;SDS011;10938;44.794;-0.676;2022-10-22T04:21:08;1.58;;;1.13;;
21554;SDS011;10938;44.794;-0.676;2022-10-22T04:23:35;4.72;;;1.30;;
21554;SDS011;10938;44.794;-0.676;2022-10-22T04:26:02;3.25;;;1.33;;
21554;SDS011;10938;44.794;-0.676;2022-10-22T04:28:29;2.63;;;1.20;;
21554;SDS011;10938;44.794;-0.676;2022-10-22T04:30:55;3.03;;;1.23;;
21554;SDS011;10938;44.794;-0.676;2022-10-22T04:33:21;3.70;;;1.30;;
21554;SDS011;10938;44.794;-0.676;2022-10-22T04:35:46;1.25;;;1.15;;
21554;SDS011;10938;44.794;-0.676;2022-10-22T04:38:12;2.50;;;1.30;;
21554;SDS011;10938;44.794;-0.676;2022-10-22T04:40:38;1.88;;;1.10;;
21554;SDS011;10938;44.794;-0.676;2022-10-22T04:43:04;2.25;;;1.30;;
21554;SDS011;10938;44.794;-0.676;2022-10-22T04:45:31;2.17;;;1.10;;
21554;SDS011;10938;44.794;-0.676;2022-10-22T04:47:58;3.53;;;1.50;;
21554;SDS011;10938;44.794;-0.676;2022-10-22T04:50:23;1.75;;;1.13;;
21554;SDS011;10938;44.794;-0.676;2022-10-22T04:52:48;1.65;;;1.10;;
21554;SDS011;10938;44.794;-0.676;2022-10-22T04:55:14;2.40;;;1.20;;
21554;SDS011;10938;44.794;-0.676;2022-10-22T04:57:40;1.75;;;1.30;;
21554;SDS011;10938;44.794;-0.676;2022-10-22T05:00:05;1.67;;;1.20;;
21554;SDS011;10938;44.794;-0.676;2022-10-22T05:02:32;2.88;;;1.40;;
21554;SDS011;10938;44.794;-0.676;2022-10-22T05:04:59;2.90;;;1.45;;
21554;SDS011;10938;44.794;-0.676;2022-10-22T05:07:24;1.48;;;1.00;;
21554;SDS011;10938;44.794;-0.676;2022-10-22T05:09:50;2.08;;;1.50;;
21554;SDS011;10938;44.794;-0.676;2022-10-22T05:12:20;2.75;;;1.50;;
21554;SDS011;10938;44.794;-0.676;2022-10-22T05:14:46;1.70;;;1.10;;
21554;SDS011;10938;44.794;-0.676;2022-10-22T05:17:11;1.20;;;1.10;;
21554;SDS011;10938;44.794;-0.676;2022-10-22T05:19:37;2.75;;;1.40;;
21554;SDS011;10938;44.794;-0.676;2022-10-22T05:22:03;2.20;;;1.48;;
21554;SDS011;10938;44.794;-0.676;2022-10-22T05:24:30;3.13;;;1.40;;
21554;SDS011;10938;44.794;-0.676;2022-10-22T05:26:57;2.55;;;1.30;;
21554;SDS011;10938;44.794;-0.676;2022-10-22T05:29:25;3.40;;;1.40;;
21554;SDS011;10938;44.794;-0.676;2022-10-22T05:31:51;2.22;;;1.30;;
21554;SDS011;10938;44.794;-0.676;2022-10-22T05:34:17;3.83;;;1.30;;
21554;SDS011;10938;44.794;-0.676;2022-10-22T05:36:43;2.20;;;1.30;;
21554;SDS011;10938;44.794;-0.676;2022-10-22T05:39:08;2.92;;;1.27;;
21554;SDS011;10938;44.794;-0.676;2022-10-22T05:41:34;2.22;;;1.58;;
21554;SDS011;10938;44.794;-0.676;2022-10-22T05:44:00;5.47;;;1.80;;
21554;SDS011;10938;44.794;-0.676;2022-10-22T05:46:27;3.72;;;1.70;;
21554;SDS011;10938;44.794;-0.676;2022-10-22T05:48:58;3.78;;;1.70;;
21554;SDS011;10938;44.794;-0.676;2022-10-22T05:51:25;3.28;;;1.60;;
21554;SDS011;10938;44.794;-0.676;2022-10-22T05:54:00;2.78;;;1.45;;
21554;SDS011;10938;44.794;-0.676;2022-10-22T05:56:28;5.90;;;1.55;;
21554;SDS011;10938;44.794;-0.676;2022-10-22T05:58:56;2.55;;;1.42;;
21554;SDS011;10938;44.794;-0.676;2022-10-22T06:01:23;3.65;;;1.50;;
21554;SDS011;10938;44.794;-0.676;2022-10-22T06:03:53;2.90;;;1.60;;
21554;SDS011;10938;44.794;-0.676;2022-10-22T06:09:02;2.22;;;1.50;;
21554;SDS011;10938;44.794;-0.676;2022-10-22T06:11:31;5.70;;;1.60;;
21554;SDS011;10938;44.794;-0.676;2022-10-22T06:13:56;3.95;;;1.33;;
21554;SDS011;10938;44.794;-0.676;2022-10-22T06:16:22;3.63;;;1.77;;
21554;SDS011;10938;44.794;-0.676;2022-10-22T06:18:47;2.05;;;1.50;;
21554;SDS011;10938;44.794;-0.676;2022-10-22T06:21:14;3.00;;;1.45;;
21554;SDS011;10938;44.794;-0.676;2022-10-22T06:23:45;2.15;;;1.58;;
21554;SDS011;10938;44.794;-0.676;2022-10-22T06:26:23;2.97;;;1.60;;
21554;SDS011;10938;44.794;-0.676;2022-10-22T06:29:21;3.58;;;1.60;;
21554;SDS011;10938;44.794;-0.676;2022-10-22T06:31:47;2.97;;;1.98;;
21554;SDS011;10938;44.794;-0.676;2022-10-22T06:34:13;4.50;;;1.80;;
21554;SDS011;10938;44.794;-0.676;2022-10-22T06:36:43;4.45;;;2.10;;
21554;SDS011;10938;44.794;-0.676;2022-10-22T06:39:16;3.22;;;1.88;;
21554;SDS011;10938;44.794;-0.676;2022-10-22T06:41:47;2.72;;;1.80;;
21554;SDS011;10938;44.794;-0.676;2022-10-22T06:44:14;3.40;;;2.08;;
21554;SDS011;10938;44.794;-0.676;2022-10-22T06:46:40;5.20;;;2.28;;
21554;SDS011;10938;44.794;-0.676;2022-10-22T06:49:06;5.22;;;2.10;;
21554;SDS011;10938;44.794;-0.676;2022-10-22T06:51:31;2.78;;;2.00;;
21554;SDS011;10938;44.794;-0.676;2022-10-22T06:53:57;4.35;;;1.80;;
21554;SDS011;10938;44.794;-0.676;2022-10-22T06:56:24;3.85;;;2.00;;
21554;SDS011;10938;44.794;-0.676;2022-10-22T06:58:52;3.00;;;1.63;;
21554;SDS011;10938;44.794;-0.676;2022-10-22T07:01:20;5.97;;;2.35;;
21554;SDS011;10938;44.794;-0.676;2022-10-22T07:03:49;3.30;;;2.20;;
21554;SDS011;10938;44.794;-0.676;2022-10-22T07:06:16;6.88;;;2.15;;
21554;SDS011;10938;44.794;-0.676;2022-10-22T07:08:43;4.65;;;1.77;;
21554;SDS011;10938;44.794;-0.676;2022-10-22T07:11:13;5.00;;;2.03;;
21554;SDS011;10938;44.794;-0.676;2022-10-22T07:13:43;4.50;;;2.00;;
21554;SDS011;10938;44.794;-0.676;2022-10-22T07:16:10;4.60;;;1.80;;
21554;SDS011;10938;44.794;-0.676;2022-10-22T07:18:36;3.15;;;1.80;;
21554;SDS011;10938;44.794;-0.676;2022-10-22T07:21:04;4.90;;;2.28;;
21554;SDS011;10938;44.794;-0.676;2022-10-22T07:23:31;2.70;;;2.30;;
21554;SDS011;10938;44.794;-0.676;2022-10-22T07:25:56;4.45;;;2.05;;
21554;SDS011;10938;44.794;-0.676;2022-10-22T07:28:22;3.35;;;2.13;;
21554;SDS011;10938;44.794;-0.676;2022-10-22T07:30:48;3.03;;;1.70;;
21554;SDS011;10938;44.794;-0.676;2022-10-22T07:33:14;4.63;;;1.92;;
21554;SDS011;10938;44.794;-0.676;2022-10-22T07:35:40;4.47;;;2.17;;
21554;SDS011;10938;44.794;-0.676;2022-10-22T07:38:07;2.05;;;1.60;;
21554;SDS011;10938;44.794;-0.676;2022-10-22T07:40:36;5.30;;;2.00;;
21554;SDS011;10938;44.794;-0.676;2022-10-22T07:43:07;4.30;;;1.85;;
21554;SDS011;10938;44.794;-0.676;2022-10-22T07:46:09;2.10;;;1.90;;
21554;SDS011;10938;44.794;-0.676;2022-10-22T07:48:47;5.25;;;1.90;;
21554;SDS011;10938;44.794;-0.676;2022-10-22T07:51:43;4.82;;;1.70;;
21554;SDS011;10938;44.794;-0.676;2022-10-22T07:54:08;6.93;;;1.92;;
21554;SDS011;10938;44.794;-0.676;2022-10-22T07:56:40;4.07;;;1.83;;
21554;SDS011;10938;44.794;-0.676;2022-10-22T07:59:21;3.00;;;1.80;;
21554;SDS011;10938;44.794;-0.676;2022-10-22T08:01:53;4.72;;;1.73;;
21554;SDS011;10938;44.794;-0.676;2022-10-22T08:04:20;2.33;;;1.83;;
21554;SDS011;10938;44.794;-0.676;2022-10-22T08:06:49;3.53;;;1.67;;
21554;SDS011;10938;44.794;-0.676;2022-10-22T08:09:58;2.35;;;1.50;;
21554;SDS011;10938;44.794;-0.676;2022-10-22T08:12:40;3.08;;;1.50;;
21554;SDS011;10938;44.794;-0.676;2022-10-22T08:15:20;2.55;;;1.45;;
21554;SDS011;10938;44.794;-0.676;2022-10-22T08:18:13;4.20;;;1.40;;
21554;SDS011;10938;44.794;-0.676;2022-10-22T08:20:56;1.60;;;1.20;;
21554;SDS011;10938;44.794;-0.676;2022-10-22T08:23:55;2.05;;;1.48;;
21554;SDS011;10938;44.794;-0.676;2022-10-22T08:26:56;2.22;;;1.35;;
21554;SDS011;10938;44.794;-0.676;2022-10-22T08:29:26;3.80;;;1.52;;
21554;SDS011;10938;44.794;-0.676;2022-10-22T08:32:05;1.55;;;1.38;;
21554;SDS011;10938;44.794;-0.676;2022-10-22T08:35:24;1.48;;;1.38;;
21554;SDS011;10938;44.794;-0.676;2022-10-22T08:37:55;3.97;;;1.45;;
21554;SDS011;10938;44.794;-0.676;2022-10-22T08:41:29;2.13;;;1.30;;
21554;SDS011;10938;44.794;-0.676;2022-10-22T08:51:18;1.48;;;0.90;;
21554;SDS011;10938;44.794;-0.676;2022-10-22T08:57:30;4.60;;;1.20;;
21554;SDS011;10938;44.794;-0.676;2022-10-22T09:06:34;1.30;;;1.00;;
21554;SDS011;10938;44.794;-0.676;2022-10-22T09:09:17;1.77;;;1.10;;
21554;SDS011;10938;44.794;-0.676;2022-10-22T09:11:47;2.38;;;1.27;;
21554;SDS011;10938;44.794;-0.676;2022-10-22T09:14:20;1.98;;;1.17;;
21554;SDS011;10938;44.794;-0.676;2022-10-22T09:19:48;2.83;;;1.02;;
21554;SDS011;10938;44.794;-0.676;2022-10-22T09:22:37;1.58;;;1.17;;
21554;SDS011;10938;44.794;-0.676;2022-10-22T09:25:35;3.60;;;1.00;;
21554;SDS011;10938;44.794;-0.676;2022-10-22T09:28:58;2.05;;;0.95;;
21554;SDS011;10938;44.794;-0.676;2022-10-22T09:32:17;2.72;;;1.10;;
21554;SDS011;10938;44.794;-0.676;2022-10-22T09:34:44;2.10;;;1.00;;
21554;SDS011;10938;44.794;-0.676;2022-10-22T09:37:19;3.70;;;1.17;;
21554;SDS011;10938;44.794;-0.676;2022-10-22T09:40:12;2.08;;;0.88;;
21554;SDS011;10938;44.794;-0.676;2022-10-22T09:42:49;4.87;;;1.30;;
21554;SDS011;10938;44.794;-0.676;2022-10-22T09:45:34;4.55;;;0.90;;
21554;SDS011;10938;44.794;-0.676;2022-10-22T09:48:51;1.88;;;1.00;;
21554;SDS011;10938;44.794;-0.676;2022-10-22T09:57:04;1.55;;;0.90;;
21554;SDS011;10938;44.794;-0.676;2022-10-22T09:59:49;1.27;;;0.90;;
21554;SDS011;10938;44.794;-0.676;2022-10-22T10:04:52;1.27;;;0.90;;
21554;SDS011;10938;44.794;-0.676;2022-10-22T10:07:23;0.85;;;0.80;;
21554;SDS011;10938;44.794;-0.676;2022-10-22T10:10:00;1.73;;;1.20;;
21554;SDS011;10938;44.794;-0.676;2022-10-22T10:13:00;1.83;;;0.98;;
21554;SDS011;10938;44.794;-0.676;2022-10-22T10:15:43;2.67;;;1.40;;
21554;SDS011;10938;44.794;-0.676;2022-10-22T10:21:01;6.25;;;2.13;;
21554;SDS011;10938;44.794;-0.676;2022-10-22T10:26:47;3.92;;;1.25;;
21554;SDS011;10938;44.794;-0.676;2022-10-22T10:53:59;2.15;;;1.05;;
21554;SDS011;10938;44.794;-0.676;2022-10-22T10:59:06;2.78;;;0.95;;
21554;SDS011;10938;44.794;-0.676;2022-10-22T11:07:53;2.97;;;1.40;;
21554;SDS011;10938;44.794;-0.676;2022-10-22T11:13:59;1.13;;;0.82;;
21554;SDS011;10938;44.794;-0.676;2022-10-22T11:16:50;1.75;;;1.23;;
21554;SDS011;10938;44.794;-0.676;2022-10-22T11:19:49;2.55;;;1.40;;
21554;SDS011;10938;44.794;-0.676;2022-10-22T11:25:02;3.83;;;1.40;;
21554;SDS011;10938;44.794;-0.676;2022-10-22T11:27:47;1.83;;;1.00;;
21554;SDS011;10938;44.794;-0.676;2022-10-22T11:30:39;1.77;;;1.25;;
21554;SDS011;10938;44.794;-0.676;2022-10-22T11:33:11;2.78;;;1.00;;
21554;SDS011;10938;44.794;-0.676;2022-10-22T11:35:48;3.90;;;1.02;;
21554;SDS011;10938;44.794;-0.676;2022-10-22T11:38:19;5.00;;;1.30;;
21554;SDS011;10938;44.794;-0.676;2022-10-22T11:40:53;3.83;;;1.17;;
21554;SDS011;10938;44.794;-0.676;2022-10-22T11:46:34;1.67;;;1.00;;
21554;SDS011;10938;44.794;-0.676;2022-10-22T11:51:43;2.08;;;1.20;;
21554;SDS011;10938;44.794;-0.676;2022-10-22T11:57:20;1.90;;;1.02;;
21554;SDS011;10938;44.794;-0.676;2022-10-22T12:07:50;2.28;;;0.90;;
21554;SDS011;10938;44.794;-0.676;2022-10-22T12:10:59;3.97;;;0.90;;
21554;SDS011;10938;44.794;-0.676;2022-10-22T12:16:42;3.75;;;1.10;;
21554;SDS011;10938;44.794;-0.676;2022-10-22T12:22:37;2.05;;;0.80;;
21554;SDS011;10938;44.794;-0.676;2022-10-22T12:25:22;2.33;;;0.98;;
21554;SDS011;10938;44.794;-0.676;2022-10-22T12:27:53;1.52;;;0.73;;
21554;SDS011;10938;44.794;-0.676;2022-10-22T12:30:22;2.78;;;0.88;;
21554;SDS011;10938;44.794;-0.676;2022-10-22T12:33:00;1.52;;;0.80;;
21554;SDS011;10938;44.794;-0.676;2022-10-22T12:35:41;1.98;;;0.80;;
21554;SDS011;10938;44.794;-0.676;2022-10-22T12:38:19;4.75;;;0.80;;
21554;SDS011;10938;44.794;-0.676;2022-10-22T12:40:55;2.00;;;0.85;;
21554;SDS011;10938;44.794;-0.676;2022-10-22T12:43:26;3.38;;;0.73;;
21554;SDS011;10938;44.794;-0.676;2022-10-22T12:46:10;0.82;;;0.60;;
21554;SDS011;10938;44.794;-0.676;2022-10-22T12:48:43;1.48;;;1.00;;
21554;SDS011;10938;44.794;-0.676;2022-10-22T12:51:35;1.40;;;0.80;;
21554;SDS011;10938;44.794;-0.676;2022-10-22T12:54:46;3.03;;;1.60;;
21554;SDS011;10938;44.794;-0.676;2022-10-22T12:56:54;1.58;;;0.90;;
21554;SDS011;10938;44.794;-0.676;2022-10-22T12:59:25;1.65;;;0.70;;
21554;SDS011;10938;44.794;-0.676;2022-10-22T13:02:01;3.70;;;0.85;;
21554;SDS011;10938;44.794;-0.676;2022-10-22T13:04:38;1.60;;;0.75;;
21554;SDS011;10938;44.794;-0.676;2022-10-22T13:07:43;2.78;;;0.80;;
21554;SDS011;10938;44.794;-0.676;2022-10-22T13:10:47;1.45;;;0.70;;
21554;SDS011;10938;44.794;-0.676;2022-10-22T13:16:18;4.67;;;0.80;;
21554;SDS011;10938;44.794;-0.676;2022-10-22T13:18:49;4.03;;;0.90;;
21554;SDS011;10938;44.794;-0.676;2022-10-22T13:21:25;1.85;;;0.52;;
21554;SDS011;10938;44.794;-0.676;2022-10-22T13:24:17;1.55;;;0.70;;
21554;SDS011;10938;44.794;-0.676;2022-10-22T13:26:52;2.58;;;1.00;;
21554;SDS011;10938;44.794;-0.676;2022-10-22T13:29:21;1.35;;;0.60;;
21554;SDS011;10938;44.794;-0.676;2022-10-22T13:31:52;1.33;;;0.60;;
21554;SDS011;10938;44.794;-0.676;2022-10-22T13:34:23;0.80;;;0.68;;
21554;SDS011;10938;44.794;-0.676;2022-10-22T13:36:50;1.90;;;0.80;;
21554;SDS011;10938;44.794;-0.676;2022-10-22T13:41:49;1.48;;;0.77;;
21554;SDS011;10938;44.794;-0.676;2022-10-22T13:44:17;2.00;;;0.73;;
21554;SDS011;10938;44.794;-0.676;2022-10-22T13:46:44;2.78;;;1.00;;
21554;SDS011;10938;44.794;-0.676;2022-10-22T13:49:19;3.45;;;0.90;;
21554;SDS011;10938;44.794;-0.676;2022-10-22T13:51:57;2.40;;;1.00;;
21554;SDS011;10938;44.794;-0.676;2022-10-22T13:54:24;1.63;;;0.90;;
21554;SDS011;10938;44.794;-0.676;2022-10-22T13:56:50;2.15;;;0.82;;
21554;SDS011;10938;44.794;-0.676;2022-10-22T13:59:19;2.65;;;0.88;;
21554;SDS011;10938;44.794;-0.676;2022-10-22T14:01:56;3.00;;;0.88;;
21554;SDS011;10938;44.794;-0.676;2022-10-22T14:04:49;1.63;;;0.90;;
21554;SDS011;10938;44.794;-0.676;2022-10-22T14:07:47;2.15;;;0.75;;
21554;SDS011;10938;44.794;-0.676;2022-10-22T14:10:22;2.28;;;1.00;;
21554;SDS011;10938;44.794;-0.676;2022-10-22T14:12:53;2.33;;;1.08;;
21554;SDS011;10938;44.794;-0.676;2022-10-22T14:15:23;1.55;;;0.95;;
21554;SDS011;10938;44.794;-0.676;2022-10-22T14:17:58;3.08;;;1.23;;
21554;SDS011;10938;44.794;-0.676;2022-10-22T14:20:28;3.67;;;0.98;;
21554;SDS011;10938;44.794;-0.676;2022-10-22T14:23:01;2.17;;;1.05;;
21554;SDS011;10938;44.794;-0.676;2022-10-22T14:25:35;1.73;;;0.90;;
21554;SDS011;10938;44.794;-0.676;2022-10-22T14:28:01;1.80;;;1.00;;
21554;SDS011;10938;44.794;-0.676;2022-10-22T14:30:30;2.28;;;0.95;;
21554;SDS011;10938;44.794;-0.676;2022-10-22T14:32:58;3.28;;;1.20;;
21554;SDS011;10938;44.794;-0.676;2022-10-22T14:35:58;2.45;;;1.15;;
21554;SDS011;10938;44.794;-0.676;2022-10-22T14:38:34;1.63;;;0.90;;
21554;SDS011;10938;44.794;-0.676;2022-10-22T14:41:28;1.67;;;0.85;;
21554;SDS011;10938;44.794;-0.676;2022-10-22T14:44:45;1.13;;;0.93;;
21554;SDS011;10938;44.794;-0.676;2022-10-22T14:47:25;1.92;;;1.05;;
21554;SDS011;10938;44.794;-0.676;2022-10-22T14:50:05;2.15;;;0.77;;
21554;SDS011;10938;44.794;-0.676;2022-10-22T14:53:09;3.50;;;0.77;;
21554;SDS011;10938;44.794;-0.676;2022-10-22T14:55:49;5.28;;;0.93;;
21554;SDS011;10938;44.794;-0.676;2022-10-22T14:58:39;2.65;;;0.70;;
21554;SDS011;10938;44.794;-0.676;2022-10-22T15:01:08;3.92;;;0.80;;
21554;SDS011;10938;44.794;-0.676;2022-10-22T15:03:47;2.15;;;1.00;;
21554;SDS011;10938;44.794;-0.676;2022-10-22T15:06:37;2.25;;;0.80;;
21554;SDS011;10938;44.794;-0.676;2022-10-22T15:09:08;2.00;;;0.75;;
21554;SDS011;10938;44.794;-0.676;2022-10-22T15:11:35;1.27;;;0.65;;
21554;SDS011;10938;44.794;-0.676;2022-10-22T15:14:01;2.97;;;0.85;;
21554;SDS011;10938;44.794;-0.676;2022-10-22T15:16:27;1.50;;;0.70;;
21554;SDS011;10938;44.794;-0.676;2022-10-22T15:18:59;3.90;;;1.17;;
21554;SDS011;10938;44.794;-0.676;2022-10-22T15:21:48;2.65;;;1.00;;
21554;SDS011;10938;44.794;-0.676;2022-10-22T15:24:14;1.92;;;0.88;;
21554;SDS011;10938;44.794;-0.676;2022-10-22T15:26:41;2.95;;;0.70;;
21554;SDS011;10938;44.794;-0.676;2022-10-22T15:29:07;2.72;;;0.85;;
21554;SDS011;10938;44.794;-0.676;2022-10-22T15:31:46;3.05;;;0.90;;
21554;SDS011;10938;44.794;-0.676;2022-10-22T15:34:29;4.28;;;0.90;;
21554;SDS011;10938;44.794;-0.676;2022-10-22T15:37:03;1.15;;;0.90;;
21554;SDS011;10938;44.794;-0.676;2022-10-22T15:39:30;4.15;;;0.90;;
21554;SDS011;10938;44.794;-0.676;2022-10-22T15:41:57;1.42;;;0.77;;
21554;SDS011;10938;44.794;-0.676;2022-10-22T15:44:33;1.40;;;0.70;;
21554;SDS011;10938;44.794;-0.676;2022-10-22T15:47:29;6.88;;;0.95;;
21554;SDS011;10938;44.794;-0.676;2022-10-22T15:49:58;0.98;;;0.60;;
21554;SDS011;10938;44.794;-0.676;2022-10-22T15:52:26;1.30;;;0.75;;
21554;SDS011;10938;44.794;-0.676;2022-10-22T15:54:52;2.13;;;1.00;;
21554;SDS011;10938;44.794;-0.676;2022-10-22T15:57:22;2.40;;;1.38;;
21554;SDS011;10938;44.794;-0.676;2022-10-22T15:59:52;2.40;;;0.90;;
21554;SDS011;10938;44.794;-0.676;2022-10-22T16:02:18;1.33;;;0.80;;
21554;SDS011;10938;44.794;-0.676;2022-10-22T16:04:44;2.03;;;1.00;;
21554;SDS011;10938;44.794;-0.676;2022-10-22T16:07:15;2.83;;;0.90;;
21554;SDS011;10938;44.794;-0.676;2022-10-22T16:09:43;2.65;;;0.95;;
21554;SDS011;10938;44.794;-0.676;2022-10-22T16:12:14;1.08;;;0.68;;
21554;SDS011;10938;44.794;-0.676;2022-10-22T16:14:39;1.92;;;1.02;;
21554;SDS011;10938;44.794;-0.676;2022-10-22T16:17:06;5.13;;;1.00;;
21554;SDS011;10938;44.794;-0.676;2022-10-22T16:19:49;1.85;;;0.70;;
21554;SDS011;10938;44.794;-0.676;2022-10-22T16:22:22;3.45;;;1.00;;
21554;SDS011;10938;44.794;-0.676;2022-10-22T16:24:55;1.88;;;0.90;;
21554;SDS011;10938;44.794;-0.676;2022-10-22T16:27:26;1.75;;;0.63;;
21554;SDS011;10938;44.794;-0.676;2022-10-22T16:29:56;3.67;;;0.90;;
21554;SDS011;10938;44.794;-0.676;2022-10-22T16:32:21;3.33;;;0.70;;
21554;SDS011;10938;44.794;-0.676;2022-10-22T16:34:47;1.70;;;0.73;;
21554;SDS011;10938;44.794;-0.676;2022-10-22T16:37:19;1.75;;;0.90;;
21554;SDS011;10938;44.794;-0.676;2022-10-22T16:39:57;1.45;;;0.90;;
21554;SDS011;10938;44.794;-0.676;2022-10-22T16:42:29;4.13;;;0.90;;
21554;SDS011;10938;44.794;-0.676;2022-10-22T16:45:21;3.00;;;0.70;;
21554;SDS011;10938;44.794;-0.676;2022-10-22T16:47:47;3.45;;;0.80;;
21554;SDS011;10938;44.794;-0.676;2022-10-22T16:50:15;2.63;;;0.93;;
21554;SDS011;10938;44.794;-0.676;2022-10-22T16:52:44;2.13;;;0.90;;
21554;SDS011;10938;44.794;-0.676;2022-10-22T16:55:16;1.77;;;0.95;;
21554;SDS011;10938;44.794;-0.676;2022-10-22T16:57:51;1.63;;;0.70;;
21554;SDS011;10938;44.794;-0.676;2022-10-22T17:00:18;1.35;;;0.95;;
21554;SDS011;10938;44.794;-0.676;2022-10-22T17:02:49;1.60;;;1.00;;
21554;SDS011;10938;44.794;-0.676;2022-10-22T17:05:22;2.22;;;0.90;;
21554;SDS011;10938;44.794;-0.676;2022-10-22T17:07:52;2.10;;;0.98;;
21554;SDS011;10938;44.794;-0.676;2022-10-22T17:10:20;1.73;;;0.75;;
21554;SDS011;10938;44.794;-0.676;2022-10-22T17:12:46;1.05;;;0.70;;
21554;SDS011;10938;44.794;-0.676;2022-10-22T17:15:12;1.50;;;0.90;;
21554;SDS011;10938;44.794;-0.676;2022-10-22T17:17:50;2.38;;;0.80;;
21554;SDS011;10938;44.794;-0.676;2022-10-22T17:20:20;2.15;;;1.10;;
21554;SDS011;10938;44.794;-0.676;2022-10-22T17:22:51;1.98;;;0.95;;
21554;SDS011;10938;44.794;-0.676;2022-10-22T17:25:40;2.13;;;0.90;;
21554;SDS011;10938;44.794;-0.676;2022-10-22T17:28:10;1.35;;;0.82;;
21554;SDS011;10938;44.794;-0.676;2022-10-22T17:30:36;2.97;;;0.90;;